Airfield :
LOGIN :

Register | Disclaimer

   EN    FR    IT 

 










Legend :    VFR   Marginal VFR   IFR   Intensive IFR   Very Intensive IFR
Visi :
Ceiling :
>= 8 km
>= 3000ft
5 to 8 km
1000 to 3000 ft
1500m to 5 km
500 to 1000 ft
800 to 1500m
200 to 500 ft
< 800m
< 200 ft
Symbols :   Thunderstorms  Fog  Heavy snow  Heavy precipitations  Wind > 20 kt
SIGMETs :     Misc.  Thunderstorms  Icing  Turbulence  Mountain Waves  Volcanic Ashes






- Airport Elevation : -15 ft
- IATA code : RTM


EHRD - Rotterdam Zestienhoven

CURRENT METAR :
  • 270825Z AUTO 16009KT 9999 DZ BKN015 OVC019 03/02 Q0999 BECMG BKN012

EXPIRED METARs :
  • 270755Z AUTO 17007KT 9999 -DZ FEW028 SCT031 BKN036 03/02 Q0999 REDZ NOSIG
  • 270725Z AUTO 19014KT 160V220 9999 -RA FEW009 BKN010 OVC016 03/01 Q1000 NOSIG
  • 270655Z AUTO 17009KT 9999 -UP SCT028 SCT032 BKN036 03/01 Q1000 NOSIG
  • 270625Z AUTO 18009G19KT 130V240 9999 FEW028 SCT044 03/02 Q1000 NOSIG
  • 270555Z AUTO 18009KT 150V210 9999 SCT037 03/02 Q1001 NOSIG

TAF TAF EHRD
Valid from the 27 at 06:00 until the 28 at 12:00 UTC


270517Z 2706/2812 18008KT 9999 SCT025
BECMG 2707/2710 6000 -RA SCT004 BKN006
TEMPO 2709/2717 4000 RA RASN BKN004
PROB30
TEMPO 2710/2716 VRB03KT 2500 SNRA
BECMG 2714/2716 31010KT
BECMG 2716/2719 32015G25KT 9999 NSW SCT025
TEMPO 2717/2719 6000 SHRAGS SCT020CB BKN030
BECMG 2720/2723 29010KT
BECMG 2805/2808 21010KT



MET'MAP, your aeronautical weather chart ! - Copyright ORBIFLY December 2007 - Disclaimer

ORBIFLY MET'MAP TEAM :

Programming & Development : Alexandra Zaïnal
Concept & original design : Baudouin d'Aumeries
Assistance for programming : Marc-Olivier Méhu
Technical & hardware support : Manuel Goepfert

Contact : metmap@orbifly.com




SOURCES & CREDITS :

   NOAA